sensor_id;sensor_type;location;lat;lon;timestamp;P1;durP1;ratioP1;P2;durP2;ratioP2
80508;SDS011;69838;52.602;13.434;2023-08-07T00:00:05;5.05;;;2.50;;
80508;SDS011;69838;52.602;13.434;2023-08-07T00:00:50;5.07;;;2.60;;
80508;SDS011;69838;52.602;13.434;2023-08-07T00:01:36;5.20;;;2.80;;
80508;SDS011;69838;52.602;13.434;2023-08-07T00:02:21;5.18;;;2.80;;
80508;SDS011;69838;52.602;13.434;2023-08-07T00:03:06;6.82;;;2.72;;
80508;SDS011;69838;52.602;13.434;2023-08-07T00:03:51;5.75;;;2.53;;
80508;SDS011;69838;52.602;13.434;2023-08-07T00:04:37;6.13;;;2.95;;
80508;SDS011;69838;52.602;13.434;2023-08-07T00:05:22;5.88;;;3.08;;
80508;SDS011;69838;52.602;13.434;2023-08-07T00:06:07;5.88;;;3.00;;
80508;SDS011;69838;52.602;13.434;2023-08-07T00:06:52;4.65;;;3.05;;
80508;SDS011;69838;52.602;13.434;2023-08-07T00:07:38;7.82;;;3.05;;
80508;SDS011;69838;52.602;13.434;2023-08-07T00:08:23;4.97;;;3.00;;
80508;SDS011;69838;52.602;13.434;2023-08-07T00:09:08;5.28;;;2.80;;
80508;SDS011;69838;52.602;13.434;2023-08-07T00:09:53;4.47;;;2.88;;
80508;SDS011;69838;52.602;13.434;2023-08-07T00:10:39;5.07;;;3.05;;
80508;SDS011;69838;52.602;13.434;2023-08-07T00:11:24;7.10;;;2.90;;
80508;SDS011;69838;52.602;13.434;2023-08-07T00:12:09;5.60;;;2.95;;
80508;SDS011;69838;52.602;13.434;2023-08-07T00:12:55;7.07;;;2.90;;
80508;SDS011;69838;52.602;13.434;2023-08-07T00:13:40;4.95;;;2.85;;
80508;SDS011;69838;52.602;13.434;2023-08-07T00:14:25;6.57;;;3.20;;
80508;SDS011;69838;52.602;13.434;2023-08-07T00:15:10;4.95;;;3.05;;
80508;SDS011;69838;52.602;13.434;2023-08-07T00:15:56;6.00;;;3.30;;
80508;SDS011;69838;52.602;13.434;2023-08-07T00:16:41;5.35;;;2.95;;
80508;SDS011;69838;52.602;13.434;2023-08-07T00:17:27;5.28;;;3.00;;
80508;SDS011;69838;52.602;13.434;2023-08-07T00:18:12;5.57;;;2.95;;
80508;SDS011;69838;52.602;13.434;2023-08-07T00:18:57;5.75;;;3.35;;
80508;SDS011;69838;52.602;13.434;2023-08-07T00:19:43;6.18;;;3.17;;
80508;SDS011;69838;52.602;13.434;2023-08-07T00:20:28;5.18;;;3.15;;
80508;SDS011;69838;52.602;13.434;2023-08-07T00:21:13;5.72;;;2.95;;
80508;SDS011;69838;52.602;13.434;2023-08-07T00:21:58;5.90;;;2.92;;
80508;SDS011;69838;52.602;13.434;2023-08-07T00:22:44;6.18;;;2.88;;
80508;SDS011;69838;52.602;13.434;2023-08-07T00:23:29;5.38;;;3.03;;
80508;SDS011;69838;52.602;13.434;2023-08-07T00:24:14;6.20;;;3.45;;
80508;SDS011;69838;52.602;13.434;2023-08-07T00:24:59;5.15;;;3.35;;
80508;SDS011;69838;52.602;13.434;2023-08-07T00:25:44;5.68;;;2.85;;
80508;SDS011;69838;52.602;13.434;2023-08-07T00:26:30;5.40;;;3.00;;
80508;SDS011;69838;52.602;13.434;2023-08-07T00:27:17;6.20;;;3.13;;
80508;SDS011;69838;52.602;13.434;2023-08-07T00:28:02;6.60;;;3.38;;
80508;SDS011;69838;52.602;13.434;2023-08-07T00:28:47;5.20;;;3.15;;
80508;SDS011;69838;52.602;13.434;2023-08-07T00:29:33;5.22;;;3.28;;
80508;SDS011;69838;52.602;13.434;2023-08-07T00:30:18;6.45;;;3.50;;
80508;SDS011;69838;52.602;13.434;2023-08-07T00:31:03;8.02;;;3.33;;
80508;SDS011;69838;52.602;13.434;2023-08-07T00:31:48;5.78;;;3.65;;
80508;SDS011;69838;52.602;13.434;2023-08-07T00:32:34;5.88;;;3.38;;
80508;SDS011;69838;52.602;13.434;2023-08-07T00:33:19;5.38;;;3.42;;
80508;SDS011;69838;52.602;13.434;2023-08-07T00:34:04;6.13;;;4.13;;
80508;SDS011;69838;52.602;13.434;2023-08-07T00:34:50;7.45;;;4.05;;
80508;SDS011;69838;52.602;13.434;2023-08-07T00:35:35;7.95;;;3.70;;
80508;SDS011;69838;52.602;13.434;2023-08-07T00:36:20;7.13;;;3.50;;
80508;SDS011;69838;52.602;13.434;2023-08-07T00:37:05;6.43;;;3.78;;
80508;SDS011;69838;52.602;13.434;2023-08-07T00:37:51;6.45;;;3.22;;
80508;SDS011;69838;52.602;13.434;2023-08-07T00:38:36;6.03;;;3.67;;
80508;SDS011;69838;52.602;13.434;2023-08-07T00:39:21;6.28;;;3.30;;
80508;SDS011;69838;52.602;13.434;2023-08-07T00:40:07;5.47;;;3.47;;
80508;SDS011;69838;52.602;13.434;2023-08-07T00:40:53;6.10;;;3.15;;
80508;SDS011;69838;52.602;13.434;2023-08-07T00:41:38;6.35;;;3.30;;
80508;SDS011;69838;52.602;13.434;2023-08-07T00:42:23;7.57;;;4.15;;
80508;SDS011;69838;52.602;13.434;2023-08-07T00:43:08;5.70;;;3.63;;
80508;SDS011;69838;52.602;13.434;2023-08-07T00:43:54;6.13;;;3.08;;
80508;SDS011;69838;52.602;13.434;2023-08-07T00:44:39;5.65;;;3.40;;
80508;SDS011;69838;52.602;13.434;2023-08-07T00:45:24;4.95;;;3.25;;
80508;SDS011;69838;52.602;13.434;2023-08-07T00:46:09;7.43;;;4.00;;
80508;SDS011;69838;52.602;13.434;2023-08-07T00:46:55;5.95;;;2.90;;
80508;SDS011;69838;52.602;13.434;2023-08-07T00:47:40;5.53;;;3.20;;
80508;SDS011;69838;52.602;13.434;2023-08-07T00:48:26;6.35;;;3.10;;
80508;SDS011;69838;52.602;13.434;2023-08-07T00:49:11;6.35;;;3.35;;
80508;SDS011;69838;52.602;13.434;2023-08-07T00:49:57;7.13;;;3.13;;
80508;SDS011;69838;52.602;13.434;2023-08-07T00:50:43;7.40;;;3.28;;
80508;SDS011;69838;52.602;13.434;2023-08-07T00:51:30;5.95;;;3.22;;
80508;SDS011;69838;52.602;13.434;2023-08-07T00:52:16;6.53;;;3.10;;
80508;SDS011;69838;52.602;13.434;2023-08-07T00:53:02;5.40;;;2.88;;
80508;SDS011;69838;52.602;13.434;2023-08-07T00:53:47;5.32;;;3.20;;
80508;SDS011;69838;52.602;13.434;2023-08-07T00:54:33;5.40;;;2.83;;
80508;SDS011;69838;52.602;13.434;2023-08-07T00:55:18;5.55;;;2.85;;
80508;SDS011;69838;52.602;13.434;2023-08-07T00:56:04;6.18;;;2.75;;
80508;SDS011;69838;52.602;13.434;2023-08-07T00:56:49;5.53;;;3.22;;
80508;SDS011;69838;52.602;13.434;2023-08-07T00:57:35;7.00;;;2.92;;
80508;SDS011;69838;52.602;13.434;2023-08-07T00:58:21;5.53;;;3.10;;
80508;SDS011;69838;52.602;13.434;2023-08-07T00:59:06;6.38;;;3.05;;
80508;SDS011;69838;52.602;13.434;2023-08-07T00:59:52;5.32;;;3.03;;
80508;SDS011;69838;52.602;13.434;2023-08-07T01:00:37;5.88;;;2.95;;
80508;SDS011;69838;52.602;13.434;2023-08-07T01:01:23;5.38;;;3.10;;
80508;SDS011;69838;52.602;13.434;2023-08-07T01:02:08;5.90;;;2.90;;
80508;SDS011;69838;52.602;13.434;2023-08-07T01:02:55;5.72;;;3.10;;
80508;SDS011;69838;52.602;13.434;2023-08-07T01:03:41;5.55;;;2.65;;
80508;SDS011;69838;52.602;13.434;2023-08-07T01:04:26;4.57;;;2.88;;
80508;SDS011;69838;52.602;13.434;2023-08-07T01:05:12;5.55;;;2.83;;
80508;SDS011;69838;52.602;13.434;2023-08-07T01:05:57;5.63;;;2.67;;
80508;SDS011;69838;52.602;13.434;2023-08-07T01:06:42;6.68;;;3.10;;
80508;SDS011;69838;52.602;13.434;2023-08-07T01:07:28;4.97;;;2.97;;
80508;SDS011;69838;52.602;13.434;2023-08-07T01:08:13;4.85;;;3.15;;
80508;SDS011;69838;52.602;13.434;2023-08-07T01:08:58;5.63;;;3.70;;
80508;SDS011;69838;52.602;13.434;2023-08-07T01:09:43;5.55;;;2.78;;
80508;SDS011;69838;52.602;13.434;2023-08-07T01:10:39;6.03;;;3.47;;
80508;SDS011;69838;52.602;13.434;2023-08-07T01:11:34;6.18;;;2.95;;
80508;SDS011;69838;52.602;13.434;2023-08-07T01:12:30;6.43;;;3.30;;
80508;SDS011;69838;52.602;13.434;2023-08-07T01:13:28;6.00;;;2.97;;
80508;SDS011;69838;52.602;13.434;2023-08-07T01:15:22;5.72;;;3.10;;
80508;SDS011;69838;52.602;13.434;2023-08-07T01:16:37;6.53;;;3.22;;
80508;SDS011;69838;52.602;13.434;2023-08-07T01:17:22;5.85;;;3.13;;
80508;SDS011;69838;52.602;13.434;2023-08-07T01:18:09;6.38;;;2.85;;
80508;SDS011;69838;52.602;13.434;2023-08-07T01:18:55;7.60;;;2.95;;
80508;SDS011;69838;52.602;13.434;2023-08-07T01:19:42;5.85;;;3.22;;
80508;SDS011;69838;52.602;13.434;2023-08-07T01:20:27;5.70;;;3.28;;
80508;SDS011;69838;52.602;13.434;2023-08-07T01:21:17;6.18;;;3.58;;
80508;SDS011;69838;52.602;13.434;2023-08-07T01:22:06;6.70;;;3.55;;
80508;SDS011;69838;52.602;13.434;2023-08-07T01:22:52;6.30;;;3.30;;
80508;SDS011;69838;52.602;13.434;2023-08-07T01:23:37;6.32;;;3.38;;
80508;SDS011;69838;52.602;13.434;2023-08-07T01:24:22;7.03;;;3.78;;
80508;SDS011;69838;52.602;13.434;2023-08-07T01:25:08;6.05;;;3.78;;
80508;SDS011;69838;52.602;13.434;2023-08-07T01:25:54;6.57;;;3.60;;
80508;SDS011;69838;52.602;13.434;2023-08-07T01:26:39;7.60;;;3.53;;
80508;SDS011;69838;52.602;13.434;2023-08-07T01:27:32;5.72;;;3.70;;
80508;SDS011;69838;52.602;13.434;2023-08-07T01:30:00;5.57;;;3.05;;
80508;SDS011;69838;52.602;13.434;2023-08-07T01:30:52;5.28;;;3.40;;
80508;SDS011;69838;52.602;13.434;2023-08-07T01:31:44;6.78;;;3.35;;
80508;SDS011;69838;52.602;13.434;2023-08-07T01:33:43;5.72;;;3.72;;
80508;SDS011;69838;52.602;13.434;2023-08-07T01:34:36;6.10;;;3.38;;
80508;SDS011;69838;52.602;13.434;2023-08-07T01:35:25;5.80;;;3.90;;
80508;SDS011;69838;52.602;13.434;2023-08-07T01:36:14;7.32;;;3.45;;
80508;SDS011;69838;52.602;13.434;2023-08-07T01:37:01;5.88;;;3.53;;
80508;SDS011;69838;52.602;13.434;2023-08-07T01:37:48;6.53;;;3.10;;
80508;SDS011;69838;52.602;13.434;2023-08-07T01:38:35;6.97;;;3.50;;
80508;SDS011;69838;52.602;13.434;2023-08-07T01:39:22;5.50;;;2.92;;
80508;SDS011;69838;52.602;13.434;2023-08-07T01:40:11;5.95;;;3.13;;
80508;SDS011;69838;52.602;13.434;2023-08-07T01:40:58;5.55;;;3.53;;
80508;SDS011;69838;52.602;13.434;2023-08-07T01:41:45;6.63;;;3.40;;
80508;SDS011;69838;52.602;13.434;2023-08-07T01:42:31;6.15;;;3.42;;
80508;SDS011;69838;52.602;13.434;2023-08-07T01:43:17;5.65;;;3.08;;
80508;SDS011;69838;52.602;13.434;2023-08-07T01:44:04;6.88;;;3.47;;
80508;SDS011;69838;52.602;13.434;2023-08-07T01:44:50;6.32;;;3.58;;
80508;SDS011;69838;52.602;13.434;2023-08-07T01:45:35;7.50;;;3.53;;
80508;SDS011;69838;52.602;13.434;2023-08-07T01:46:20;6.30;;;3.38;;
80508;SDS011;69838;52.602;13.434;2023-08-07T01:47:06;6.93;;;3.13;;
80508;SDS011;69838;52.602;13.434;2023-08-07T01:47:51;5.88;;;3.55;;
80508;SDS011;69838;52.602;13.434;2023-08-07T01:48:37;6.50;;;3.50;;
80508;SDS011;69838;52.602;13.434;2023-08-07T01:49:22;6.03;;;3.53;;
80508;SDS011;69838;52.602;13.434;2023-08-07T01:50:08;6.20;;;3.03;;
80508;SDS011;69838;52.602;13.434;2023-08-07T01:50:53;7.35;;;3.58;;
80508;SDS011;69838;52.602;13.434;2023-08-07T01:51:39;5.50;;;3.25;;
80508;SDS011;69838;52.602;13.434;2023-08-07T01:52:24;6.53;;;4.18;;
80508;SDS011;69838;52.602;13.434;2023-08-07T01:53:09;6.60;;;4.15;;
80508;SDS011;69838;52.602;13.434;2023-08-07T01:53:54;6.55;;;3.72;;
80508;SDS011;69838;52.602;13.434;2023-08-07T01:54:40;5.95;;;4.10;;
80508;SDS011;69838;52.602;13.434;2023-08-07T01:55:25;6.53;;;4.03;;
80508;SDS011;69838;52.602;13.434;2023-08-07T01:56:10;7.43;;;3.75;;
80508;SDS011;69838;52.602;13.434;2023-08-07T01:56:55;9.15;;;3.75;;
80508;SDS011;69838;52.602;13.434;2023-08-07T01:57:41;8.70;;;4.75;;
80508;SDS011;69838;52.602;13.434;2023-08-07T01:58:26;7.25;;;3.83;;
80508;SDS011;69838;52.602;13.434;2023-08-07T01:59:11;5.80;;;4.03;;
80508;SDS011;69838;52.602;13.434;2023-08-07T01:59:56;7.22;;;3.67;;
80508;SDS011;69838;52.602;13.434;2023-08-07T02:00:42;6.25;;;3.80;;
80508;SDS011;69838;52.602;13.434;2023-08-07T02:01:27;8.52;;;4.30;;
80508;SDS011;69838;52.602;13.434;2023-08-07T02:02:12;7.28;;;4.18;;
80508;SDS011;69838;52.602;13.434;2023-08-07T02:02:57;8.20;;;3.70;;
80508;SDS011;69838;52.602;13.434;2023-08-07T02:03:43;6.65;;;4.35;;
80508;SDS011;69838;52.602;13.434;2023-08-07T02:04:28;8.25;;;4.68;;
80508;SDS011;69838;52.602;13.434;2023-08-07T02:05:13;7.43;;;3.90;;
80508;SDS011;69838;52.602;13.434;2023-08-07T02:05:59;5.68;;;3.60;;
80508;SDS011;69838;52.602;13.434;2023-08-07T02:06:45;6.57;;;3.90;;
80508;SDS011;69838;52.602;13.434;2023-08-07T02:07:31;7.25;;;3.90;;
80508;SDS011;69838;52.602;13.434;2023-08-07T02:08:16;9.25;;;4.22;;
80508;SDS011;69838;52.602;13.434;2023-08-07T02:09:02;6.68;;;3.90;;
80508;SDS011;69838;52.602;13.434;2023-08-07T02:09:47;6.68;;;4.50;;
80508;SDS011;69838;52.602;13.434;2023-08-07T02:10:32;7.28;;;3.95;;
80508;SDS011;69838;52.602;13.434;2023-08-07T02:11:17;8.38;;;4.22;;
80508;SDS011;69838;52.602;13.434;2023-08-07T02:12:03;7.35;;;3.90;;
80508;SDS011;69838;52.602;13.434;2023-08-07T02:12:49;9.15;;;3.85;;
80508;SDS011;69838;52.602;13.434;2023-08-07T02:13:34;7.20;;;4.00;;
80508;SDS011;69838;52.602;13.434;2023-08-07T02:14:19;7.05;;;4.25;;
80508;SDS011;69838;52.602;13.434;2023-08-07T02:15:05;7.05;;;3.80;;
80508;SDS011;69838;52.602;13.434;2023-08-07T02:15:50;8.95;;;3.78;;
80508;SDS011;69838;52.602;13.434;2023-08-07T02:16:36;7.32;;;4.07;;
80508;SDS011;69838;52.602;13.434;2023-08-07T02:17:21;7.45;;;4.05;;
80508;SDS011;69838;52.602;13.434;2023-08-07T02:18:08;7.07;;;3.90;;
80508;SDS011;69838;52.602;13.434;2023-08-07T02:18:53;7.72;;;3.90;;
80508;SDS011;69838;52.602;13.434;2023-08-07T02:19:39;6.43;;;4.32;;
80508;SDS011;69838;52.602;13.434;2023-08-07T02:20:24;6.05;;;4.10;;
80508;SDS011;69838;52.602;13.434;2023-08-07T02:21:09;7.35;;;4.07;;
80508;SDS011;69838;52.602;13.434;2023-08-07T02:21:54;8.80;;;4.53;;
80508;SDS011;69838;52.602;13.434;2023-08-07T02:22:40;7.72;;;4.70;;
80508;SDS011;69838;52.602;13.434;2023-08-07T02:23:25;7.50;;;4.22;;
80508;SDS011;69838;52.602;13.434;2023-08-07T02:24:11;6.65;;;3.90;;
80508;SDS011;69838;52.602;13.434;2023-08-07T02:24:56;9.55;;;4.45;;
80508;SDS011;69838;52.602;13.434;2023-08-07T02:25:42;9.15;;;4.38;;
80508;SDS011;69838;52.602;13.434;2023-08-07T02:26:27;7.63;;;5.03;;
80508;SDS011;69838;52.602;13.434;2023-08-07T02:27:12;7.78;;;4.20;;
80508;SDS011;69838;52.602;13.434;2023-08-07T02:27:57;9.48;;;4.53;;
80508;SDS011;69838;52.602;13.434;2023-08-07T02:28:43;7.68;;;4.15;;
80508;SDS011;69838;52.602;13.434;2023-08-07T02:29:28;8.02;;;4.65;;
80508;SDS011;69838;52.602;13.434;2023-08-07T02:30:14;8.70;;;4.20;;
80508;SDS011;69838;52.602;13.434;2023-08-07T02:31:00;8.43;;;4.05;;
80508;SDS011;69838;52.602;13.434;2023-08-07T02:31:45;10.70;;;4.53;;
80508;SDS011;69838;52.602;13.434;2023-08-07T02:32:30;10.45;;;4.78;;
80508;SDS011;69838;52.602;13.434;2023-08-07T02:33:15;8.85;;;4.45;;
80508;SDS011;69838;52.602;13.434;2023-08-07T02:34:01;8.65;;;4.57;;
80508;SDS011;69838;52.602;13.434;2023-08-07T02:34:46;6.57;;;3.80;;
80508;SDS011;69838;52.602;13.434;2023-08-07T02:35:32;7.15;;;4.30;;
80508;SDS011;69838;52.602;13.434;2023-08-07T02:36:17;7.70;;;4.40;;
80508;SDS011;69838;52.602;13.434;2023-08-07T02:37:02;7.18;;;4.45;;
80508;SDS011;69838;52.602;13.434;2023-08-07T02:37:48;9.25;;;4.55;;
80508;SDS011;69838;52.602;13.434;2023-08-07T02:38:33;7.47;;;4.22;;
80508;SDS011;69838;52.602;13.434;2023-08-07T02:39:18;10.23;;;4.65;;
80508;SDS011;69838;52.602;13.434;2023-08-07T02:40:04;6.55;;;4.20;;
80508;SDS011;69838;52.602;13.434;2023-08-07T02:40:50;8.70;;;4.13;;
80508;SDS011;69838;52.602;13.434;2023-08-07T02:41:35;8.18;;;4.35;;
80508;SDS011;69838;52.602;13.434;2023-08-07T02:42:20;11.48;;;4.45;;
80508;SDS011;69838;52.602;13.434;2023-08-07T02:43:05;10.65;;;4.07;;
80508;SDS011;69838;52.602;13.434;2023-08-07T02:43:51;9.32;;;4.47;;
80508;SDS011;69838;52.602;13.434;2023-08-07T02:44:36;8.93;;;4.40;;
80508;SDS011;69838;52.602;13.434;2023-08-07T02:45:21;8.98;;;4.70;;
80508;SDS011;69838;52.602;13.434;2023-08-07T02:46:06;9.60;;;4.78;;
80508;SDS011;69838;52.602;13.434;2023-08-07T02:46:51;8.85;;;5.00;;
80508;SDS011;69838;52.602;13.434;2023-08-07T02:47:37;8.18;;;5.20;;
80508;SDS011;69838;52.602;13.434;2023-08-07T02:48:22;9.02;;;4.43;;
80508;SDS011;69838;52.602;13.434;2023-08-07T02:49:07;8.32;;;5.30;;
80508;SDS011;69838;52.602;13.434;2023-08-07T02:49:52;8.63;;;5.60;;
80508;SDS011;69838;52.602;13.434;2023-08-07T02:50:38;9.90;;;4.47;;
80508;SDS011;69838;52.602;13.434;2023-08-07T02:51:23;10.60;;;5.03;;
80508;SDS011;69838;52.602;13.434;2023-08-07T02:52:08;8.68;;;5.22;;
80508;SDS011;69838;52.602;13.434;2023-08-07T02:52:53;8.57;;;4.97;;
80508;SDS011;69838;52.602;13.434;2023-08-07T02:53:39;8.13;;;4.63;;
80508;SDS011;69838;52.602;13.434;2023-08-07T02:54:24;8.63;;;4.75;;
80508;SDS011;69838;52.602;13.434;2023-08-07T02:55:09;7.93;;;4.53;;
80508;SDS011;69838;52.602;13.434;2023-08-07T02:55:54;9.57;;;5.97;;
80508;SDS011;69838;52.602;13.434;2023-08-07T02:56:40;9.40;;;5.07;;
80508;SDS011;69838;52.602;13.434;2023-08-07T02:57:26;10.82;;;5.72;;
80508;SDS011;69838;52.602;13.434;2023-08-07T02:58:11;11.18;;;5.78;;
80508;SDS011;69838;52.602;13.434;2023-08-07T02:58:56;9.68;;;4.95;;
80508;SDS011;69838;52.602;13.434;2023-08-07T02:59:43;9.15;;;4.88;;
80508;SDS011;69838;52.602;13.434;2023-08-07T03:00:28;11.90;;;5.45;;
80508;SDS011;69838;52.602;13.434;2023-08-07T03:01:13;9.40;;;5.38;;
80508;SDS011;69838;52.602;13.434;2023-08-07T03:01:58;8.45;;;5.57;;
80508;SDS011;69838;52.602;13.434;2023-08-07T03:02:44;9.80;;;5.50;;
80508;SDS011;69838;52.602;13.434;2023-08-07T03:03:29;10.10;;;6.25;;
80508;SDS011;69838;52.602;13.434;2023-08-07T03:04:14;11.90;;;5.35;;
80508;SDS011;69838;52.602;13.434;2023-08-07T03:04:59;9.73;;;5.95;;
80508;SDS011;69838;52.602;13.434;2023-08-07T03:05:48;7.63;;;5.13;;
80508;SDS011;69838;52.602;13.434;2023-08-07T03:06:35;10.93;;;6.45;;
80508;SDS011;69838;52.602;13.434;2023-08-07T03:07:20;10.40;;;5.55;;
80508;SDS011;69838;52.602;13.434;2023-08-07T03:08:05;9.63;;;5.38;;
80508;SDS011;69838;52.602;13.434;2023-08-07T03:08:50;9.70;;;5.60;;
80508;SDS011;69838;52.602;13.434;2023-08-07T03:09:35;8.13;;;5.28;;
80508;SDS011;69838;52.602;13.434;2023-08-07T03:10:21;8.30;;;5.07;;
80508;SDS011;69838;52.602;13.434;2023-08-07T03:11:06;11.48;;;6.18;;
80508;SDS011;69838;52.602;13.434;2023-08-07T03:11:51;9.77;;;5.60;;
80508;SDS011;69838;52.602;13.434;2023-08-07T03:12:36;10.82;;;5.88;;
80508;SDS011;69838;52.602;13.434;2023-08-07T03:13:22;9.20;;;5.70;;
80508;SDS011;69838;52.602;13.434;2023-08-07T03:14:08;10.15;;;6.22;;
80508;SDS011;69838;52.602;13.434;2023-08-07T03:14:54;11.68;;;6.35;;
80508;SDS011;69838;52.602;13.434;2023-08-07T03:15:39;9.60;;;5.68;;
80508;SDS011;69838;52.602;13.434;2023-08-07T03:16:24;9.75;;;6.03;;
80508;SDS011;69838;52.602;13.434;2023-08-07T03:17:09;9.25;;;5.72;;
80508;SDS011;69838;52.602;13.434;2023-08-07T03:17:55;9.93;;;6.13;;
80508;SDS011;69838;52.602;13.434;2023-08-07T03:18:40;8.68;;;5.15;;
80508;SDS011;69838;52.602;13.434;2023-08-07T03:19:25;10.60;;;6.38;;
80508;SDS011;69838;52.602;13.434;2023-08-07T03:20:10;9.48;;;5.65;;
80508;SDS011;69838;52.602;13.434;2023-08-07T03:20:56;12.20;;;5.80;;
80508;SDS011;69838;52.602;13.434;2023-08-07T03:21:42;11.70;;;6.30;;
80508;SDS011;69838;52.602;13.434;2023-08-07T03:22:27;9.40;;;5.95;;
80508;SDS011;69838;52.602;13.434;2023-08-07T03:23:12;10.88;;;5.97;;
80508;SDS011;69838;52.602;13.434;2023-08-07T03:23:58;10.65;;;5.97;;
80508;SDS011;69838;52.602;13.434;2023-08-07T03:24:47;10.45;;;5.47;;
80508;SDS011;69838;52.602;13.434;2023-08-07T03:25:33;9.85;;;6.68;;
80508;SDS011;69838;52.602;13.434;2023-08-07T03:26:18;12.82;;;6.55;;
80508;SDS011;69838;52.602;13.434;2023-08-07T03:27:03;10.02;;;5.78;;
80508;SDS011;69838;52.602;13.434;2023-08-07T03:27:49;10.10;;;5.78;;
80508;SDS011;69838;52.602;13.434;2023-08-07T03:28:34;9.10;;;5.85;;
80508;SDS011;69838;52.602;13.434;2023-08-07T03:29:20;10.20;;;5.63;;
80508;SDS011;69838;52.602;13.434;2023-08-07T03:30:06;12.82;;;6.00;;
80508;SDS011;69838;52.602;13.434;2023-08-07T03:30:51;14.25;;;6.15;;
80508;SDS011;69838;52.602;13.434;2023-08-07T03:31:36;10.98;;;5.50;;
80508;SDS011;69838;52.602;13.434;2023-08-07T03:32:22;9.48;;;6.05;;
80508;SDS011;69838;52.602;13.434;2023-08-07T03:33:07;11.07;;;6.18;;
80508;SDS011;69838;52.602;13.434;2023-08-07T03:33:52;10.15;;;5.80;;
80508;SDS011;69838;52.602;13.434;2023-08-07T03:34:38;10.88;;;6.15;;
80508;SDS011;69838;52.602;13.434;2023-08-07T03:35:23;9.93;;;5.97;;
80508;SDS011;69838;52.602;13.434;2023-08-07T03:36:09;8.00;;;5.55;;
80508;SDS011;69838;52.602;13.434;2023-08-07T03:36:54;9.10;;;5.97;;
80508;SDS011;69838;52.602;13.434;2023-08-07T03:37:40;12.45;;;6.53;;
80508;SDS011;69838;52.602;13.434;2023-08-07T03:38:25;9.63;;;6.10;;
80508;SDS011;69838;52.602;13.434;2023-08-07T03:39:10;9.63;;;6.43;;
80508;SDS011;69838;52.602;13.434;2023-08-07T03:39:57;10.40;;;6.78;;
80508;SDS011;69838;52.602;13.434;2023-08-07T03:40:42;8.55;;;6.50;;
80508;SDS011;69838;52.602;13.434;2023-08-07T03:41:27;11.95;;;6.50;;
80508;SDS011;69838;52.602;13.434;2023-08-07T03:42:13;10.18;;;5.75;;
80508;SDS011;69838;52.602;13.434;2023-08-07T03:43:00;10.50;;;5.95;;
80508;SDS011;69838;52.602;13.434;2023-08-07T03:43:45;9.07;;;5.60;;
80508;SDS011;69838;52.602;13.434;2023-08-07T03:44:30;10.68;;;6.28;;
80508;SDS011;69838;52.602;13.434;2023-08-07T03:45:15;9.40;;;6.18;;
80508;SDS011;69838;52.602;13.434;2023-08-07T03:46:01;10.38;;;6.65;;
80508;SDS011;69838;52.602;13.434;2023-08-07T03:46:46;11.48;;;6.25;;
80508;SDS011;69838;52.602;13.434;2023-08-07T03:47:31;10.40;;;6.10;;
80508;SDS011;69838;52.602;13.434;2023-08-07T03:48:16;12.00;;;5.75;;
80508;SDS011;69838;52.602;13.434;2023-08-07T03:49:02;10.60;;;6.18;;
80508;SDS011;69838;52.602;13.434;2023-08-07T03:49:47;10.00;;;5.20;;
80508;SDS011;69838;52.602;13.434;2023-08-07T03:50:32;9.48;;;5.57;;
80508;SDS011;69838;52.602;13.434;2023-08-07T03:51:19;11.40;;;6.07;;
80508;SDS011;69838;52.602;13.434;2023-08-07T03:52:05;11.60;;;5.95;;
80508;SDS011;69838;52.602;13.434;2023-08-07T03:52:50;10.18;;;6.18;;
80508;SDS011;69838;52.602;13.434;2023-08-07T03:53:36;10.68;;;6.13;;
80508;SDS011;69838;52.602;13.434;2023-08-07T03:54:21;9.52;;;5.80;;
80508;SDS011;69838;52.602;13.434;2023-08-07T03:55:07;11.77;;;6.82;;
80508;SDS011;69838;52.602;13.434;2023-08-07T03:55:52;10.05;;;5.15;;
80508;SDS011;69838;52.602;13.434;2023-08-07T03:56:37;8.27;;;5.38;;
80508;SDS011;69838;52.602;13.434;2023-08-07T03:57:23;11.32;;;5.90;;
80508;SDS011;69838;52.602;13.434;2023-08-07T03:58:08;11.05;;;5.15;;
80508;SDS011;69838;52.602;13.434;2023-08-07T03:58:53;11.25;;;5.20;;
80508;SDS011;69838;52.602;13.434;2023-08-07T03:59:38;9.30;;;6.45;;
80508;SDS011;69838;52.602;13.434;2023-08-07T04:00:24;9.35;;;6.30;;
80508;SDS011;69838;52.602;13.434;2023-08-07T04:01:09;10.43;;;6.10;;
80508;SDS011;69838;52.602;13.434;2023-08-07T04:01:55;9.50;;;5.88;;
80508;SDS011;69838;52.602;13.434;2023-08-07T04:02:41;8.50;;;5.78;;
80508;SDS011;69838;52.602;13.434;2023-08-07T04:03:26;8.52;;;5.47;;
80508;SDS011;69838;52.602;13.434;2023-08-07T04:04:11;9.98;;;6.18;;
80508;SDS011;69838;52.602;13.434;2023-08-07T04:04:56;8.45;;;5.38;;
80508;SDS011;69838;52.602;13.434;2023-08-07T04:05:42;9.50;;;6.18;;
80508;SDS011;69838;52.602;13.434;2023-08-07T04:06:27;8.13;;;5.40;;
80508;SDS011;69838;52.602;13.434;2023-08-07T04:07:13;9.65;;;5.95;;
80508;SDS011;69838;52.602;13.434;2023-08-07T04:07:59;8.30;;;5.53;;
80508;SDS011;69838;52.602;13.434;2023-08-07T04:08:47;9.02;;;5.80;;
80508;SDS011;69838;52.602;13.434;2023-08-07T04:09:32;9.23;;;5.45;;
80508;SDS011;69838;52.602;13.434;2023-08-07T04:10:17;10.25;;;5.78;;
80508;SDS011;69838;52.602;13.434;2023-08-07T04:11:04;9.85;;;5.80;;
80508;SDS011;69838;52.602;13.434;2023-08-07T04:11:50;7.88;;;5.07;;
80508;SDS011;69838;52.602;13.434;2023-08-07T04:12:35;9.00;;;5.15;;
80508;SDS011;69838;52.602;13.434;2023-08-07T04:13:20;8.65;;;5.63;;
80508;SDS011;69838;52.602;13.434;2023-08-07T04:14:05;9.20;;;5.60;;
80508;SDS011;69838;52.602;13.434;2023-08-07T04:14:50;8.48;;;5.43;;
80508;SDS011;69838;52.602;13.434;2023-08-07T04:15:36;10.63;;;5.68;;
80508;SDS011;69838;52.602;13.434;2023-08-07T04:16:21;9.00;;;5.70;;
80508;SDS011;69838;52.602;13.434;2023-08-07T04:17:06;10.05;;;5.22;;
80508;SDS011;69838;52.602;13.434;2023-08-07T04:17:52;12.20;;;6.63;;
80508;SDS011;69838;52.602;13.434;2023-08-07T04:18:37;10.30;;;5.53;;
80508;SDS011;69838;52.602;13.434;2023-08-07T04:19:22;9.95;;;5.38;;
80508;SDS011;69838;52.602;13.434;2023-08-07T04:20:08;8.65;;;5.65;;
80508;SDS011;69838;52.602;13.434;2023-08-07T04:20:54;9.52;;;5.85;;
80508;SDS011;69838;52.602;13.434;2023-08-07T04:21:39;8.77;;;5.97;;
80508;SDS011;69838;52.602;13.434;2023-08-07T04:22:24;9.90;;;6.18;;
80508;SDS011;69838;52.602;13.434;2023-08-07T04:23:10;8.15;;;5.20;;
80508;SDS011;69838;52.602;13.434;2023-08-07T04:23:55;9.77;;;5.68;;
80508;SDS011;69838;52.602;13.434;2023-08-07T04:24:40;8.90;;;5.65;;
80508;SDS011;69838;52.602;13.434;2023-08-07T04:25:25;11.57;;;5.97;;
80508;SDS011;69838;52.602;13.434;2023-08-07T04:26:11;9.90;;;5.20;;
80508;SDS011;69838;52.602;13.434;2023-08-07T04:26:56;10.05;;;5.15;;
80508;SDS011;69838;52.602;13.434;2023-08-07T04:27:41;7.47;;;4.93;;
80508;SDS011;69838;52.602;13.434;2023-08-07T04:28:27;7.90;;;4.95;;
80508;SDS011;69838;52.602;13.434;2023-08-07T04:29:13;8.63;;;5.30;;
80508;SDS011;69838;52.602;13.434;2023-08-07T04:29:59;8.07;;;5.32;;
80508;SDS011;69838;52.602;13.434;2023-08-07T04:30:44;13.02;;;5.75;;
80508;SDS011;69838;52.602;13.434;2023-08-07T04:31:30;9.02;;;5.20;;
80508;SDS011;69838;52.602;13.434;2023-08-07T04:32:19;11.38;;;5.57;;
80508;SDS011;69838;52.602;13.434;2023-08-07T04:33:04;8.27;;;4.95;;
80508;SDS011;69838;52.602;13.434;2023-08-07T04:33:49;8.18;;;5.10;;
80508;SDS011;69838;52.602;13.434;2023-08-07T04:34:35;9.13;;;5.05;;
80508;SDS011;69838;52.602;13.434;2023-08-07T04:35:20;10.48;;;5.35;;